createdAt,value
2022-11-06T00:00:46.574Z,21.50
2022-11-06T00:03:13.444Z,21.40
2022-11-06T00:06:00.246Z,21.30
2022-11-06T00:08:29.731Z,21.20
2022-11-06T00:10:56.561Z,21.20
2022-11-06T00:13:23.340Z,21.30
2022-11-06T00:15:49.913Z,21.20
2022-11-06T00:18:16.453Z,21.10
2022-11-06T00:20:43.073Z,21.10
2022-11-06T00:23:09.604Z,21.10
2022-11-06T00:25:40.278Z,21.10
2022-11-06T00:28:07.158Z,21.10
2022-11-06T00:30:33.711Z,21.10
2022-11-06T00:33:00.245Z,21.10
2022-11-06T00:35:26.831Z,21.10
2022-11-06T00:37:54.358Z,21.00
2022-11-06T00:40:20.893Z,21.10
2022-11-06T00:42:47.415Z,21.10
2022-11-06T00:45:13.975Z,21.10
2022-11-06T00:47:40.541Z,21.00
2022-11-06T00:50:07.495Z,21.00
2022-11-06T00:52:34.022Z,21.00
2022-11-06T00:55:00.550Z,21.00
2022-11-06T00:57:27.068Z,21.00
2022-11-06T00:59:53.608Z,21.00
2022-11-06T01:02:20.982Z,21.00
2022-11-06T01:04:47.612Z,21.00
2022-11-06T01:07:14.267Z,21.00
2022-11-06T01:09:40.823Z,21.00
2022-11-06T01:12:14.929Z,21.00
2022-11-06T01:14:43.000Z,21.00
2022-11-06T01:17:09.863Z,21.00
2022-11-06T01:19:36.511Z,21.00
2022-11-06T01:22:03.209Z,21.00
2022-11-06T01:24:30.212Z,20.90
2022-11-06T01:27:25.911Z,20.90
2022-11-06T01:29:44.360Z,20.90
2022-11-06T01:32:11.071Z,20.90
2022-11-06T01:34:37.793Z,20.90
2022-11-06T01:37:04.600Z,20.90
2022-11-06T01:39:31.198Z,20.90
2022-11-06T01:41:57.828Z,20.90
2022-11-06T01:44:33.177Z,20.90
2022-11-06T01:47:01.471Z,20.90
2022-11-06T01:49:31.595Z,20.90
2022-11-06T01:52:02.881Z,20.90
2022-11-06T01:54:31.052Z,20.90
2022-11-06T01:57:00.121Z,20.90
2022-11-06T01:59:30.171Z,20.90
2022-11-06T02:01:56.949Z,20.90
2022-11-06T02:04:30.234Z,20.90
2022-11-06T02:06:57.566Z,20.90
2022-11-06T02:09:25.387Z,20.80
2022-11-06T02:12:01.622Z,20.90
2022-11-06T02:15:05.936Z,20.80
2022-11-06T02:17:54.010Z,20.80
2022-11-06T02:21:07.564Z,20.80
2022-11-06T02:23:56.006Z,20.80
2022-11-06T02:26:47.295Z,20.80
2022-11-06T02:29:33.071Z,20.80
2022-11-06T02:32:04.064Z,20.80
2022-11-06T02:34:30.959Z,20.80
2022-11-06T02:37:01.983Z,20.80
2022-11-06T02:39:31.294Z,20.80
2022-11-06T02:42:00.404Z,20.80
2022-11-06T02:44:32.083Z,20.80
2022-11-06T02:47:02.797Z,20.80
2022-11-06T02:49:41.679Z,20.80
2022-11-06T02:52:16.136Z,20.70
2022-11-06T02:54:47.179Z,20.80
2022-11-06T02:57:17.972Z,20.80
2022-11-06T02:59:48.091Z,20.70
2022-11-06T03:02:21.142Z,20.70
2022-11-06T03:05:00.383Z,20.70
2022-11-06T03:07:54.987Z,20.70
2022-11-06T03:10:26.987Z,20.70
2022-11-06T03:12:58.242Z,20.70
2022-11-06T03:15:33.322Z,20.70
2022-11-06T03:18:19.055Z,20.70
2022-11-06T03:21:27.443Z,20.70
2022-11-06T03:24:28.254Z,20.70
2022-11-06T03:27:01.919Z,20.70
2022-11-06T03:29:43.252Z,20.70
2022-11-06T03:32:14.320Z,20.70
2022-11-06T03:35:04.331Z,20.70
2022-11-06T03:37:36.078Z,20.70
2022-11-06T03:40:08.493Z,20.70
2022-11-06T03:42:39.097Z,20.70
2022-11-06T03:45:26.519Z,20.70
2022-11-06T03:48:15.176Z,20.70
2022-11-06T03:50:56.907Z,20.60
2022-11-06T03:53:29.962Z,20.70
2022-11-06T03:56:06.205Z,20.60
2022-11-06T03:58:38.935Z,20.70
2022-11-06T04:01:08.556Z,20.60
2022-11-06T04:03:41.242Z,20.60
2022-11-06T04:06:34.135Z,20.70
2022-11-06T04:09:24.061Z,20.60
2022-11-06T04:12:10.409Z,20.60
2022-11-06T04:14:39.923Z,20.60
2022-11-06T04:17:13.024Z,20.60
2022-11-06T04:19:49.874Z,20.60
2022-11-06T04:22:21.219Z,20.60
2022-11-06T04:25:32.615Z,20.60
2022-11-06T04:28:37.722Z,20.60
2022-11-06T04:31:12.592Z,20.60
2022-11-06T04:33:58.608Z,20.60
2022-11-06T04:36:40.123Z,20.60
2022-11-06T04:39:33.019Z,20.60
2022-11-06T04:42:11.175Z,20.60
2022-11-06T04:44:43.053Z,20.60
2022-11-06T04:47:16.382Z,20.60
2022-11-06T04:49:44.207Z,20.60
2022-11-06T04:52:16.376Z,20.50
2022-11-06T04:54:44.162Z,20.60
2022-11-06T04:57:11.028Z,20.50
2022-11-06T04:59:37.679Z,20.50
2022-11-06T05:02:05.781Z,20.50
2022-11-06T05:04:32.706Z,20.50
2022-11-06T05:06:59.672Z,20.50
2022-11-06T05:09:26.323Z,20.50
2022-11-06T05:11:52.883Z,20.50
2022-11-06T05:14:19.482Z,20.50
2022-11-06T05:16:46.076Z,20.50
2022-11-06T05:19:12.792Z,20.50
2022-11-06T05:21:57.905Z,20.50
2022-11-06T05:24:24.498Z,20.50
2022-11-06T05:26:56.103Z,20.50
2022-11-06T05:29:25.584Z,20.50
2022-11-06T05:31:52.134Z,20.50
2022-11-06T05:34:18.820Z,20.50
2022-11-06T05:36:45.439Z,20.50
2022-11-06T05:39:12.031Z,20.50
2022-11-06T05:41:38.563Z,20.50
2022-11-06T05:44:05.360Z,20.50
2022-11-06T05:46:49.064Z,20.50
2022-11-06T05:49:16.432Z,20.50
2022-11-06T05:51:43.065Z,20.50
2022-11-06T05:54:09.639Z,20.50
2022-11-06T05:56:36.172Z,20.50
2022-11-06T05:59:02.877Z,20.50
2022-11-06T06:01:29.487Z,20.50
2022-11-06T06:03:56.568Z,20.50
2022-11-06T06:06:23.199Z,20.50
2022-11-06T06:08:49.788Z,20.50
2022-11-06T06:11:16.321Z,20.50
2022-11-06T06:13:42.858Z,20.50
2022-11-06T06:16:09.400Z,20.50
2022-11-06T06:18:35.988Z,20.50
2022-11-06T06:21:02.537Z,20.50
2022-11-06T06:23:29.107Z,20.40
2022-11-06T06:25:57.407Z,20.40
2022-11-06T06:28:23.983Z,20.40
2022-11-06T06:30:50.519Z,20.40
2022-11-06T06:33:17.077Z,20.40
2022-11-06T06:35:43.628Z,20.40
2022-11-06T06:38:10.446Z,20.40
2022-11-06T06:40:37.158Z,20.40
2022-11-06T06:43:03.722Z,20.40
2022-11-06T06:45:30.393Z,20.40
2022-11-06T06:48:04.930Z,20.40
2022-11-06T06:50:31.987Z,20.40
2022-11-06T06:52:59.303Z,20.40
2022-11-06T06:55:26.540Z,20.40
2022-11-06T06:58:00.547Z,20.40
2022-11-06T07:00:28.584Z,20.40
2022-11-06T07:02:55.224Z,20.40
2022-11-06T07:05:22.114Z,20.40
2022-11-06T07:07:48.648Z,20.50
2022-11-06T07:10:15.262Z,20.00
2022-11-06T07:12:41.909Z,17.30
2022-11-06T07:15:09.178Z,17.80
2022-11-06T07:17:35.819Z,18.60
2022-11-06T07:20:02.394Z,19.10
2022-11-06T07:22:35.409Z,19.40
2022-11-06T07:25:04.054Z,19.60
2022-11-06T07:27:30.622Z,19.80
2022-11-06T07:29:57.273Z,19.90
2022-11-06T07:32:23.842Z,20.00
2022-11-06T07:34:50.383Z,20.00
2022-11-06T07:37:17.255Z,20.10
2022-11-06T07:39:43.872Z,20.10
2022-11-06T07:42:10.419Z,20.10
2022-11-06T07:44:36.999Z,20.20
2022-11-06T07:47:03.621Z,20.20
2022-11-06T07:49:30.226Z,20.20
2022-11-06T07:51:56.771Z,20.30
2022-11-06T07:54:23.412Z,20.30
2022-11-06T07:56:49.989Z,20.30
2022-11-06T07:59:16.611Z,20.30
2022-11-06T08:01:43.296Z,20.30
2022-11-06T08:04:10.377Z,20.30
2022-11-06T08:06:36.943Z,20.40
2022-11-06T08:09:09.994Z,20.40
2022-11-06T08:11:36.582Z,20.50
2022-11-06T08:14:03.497Z,20.50
2022-11-06T08:16:30.745Z,20.50
2022-11-06T08:18:57.397Z,20.50
2022-11-06T08:21:23.997Z,20.50
2022-11-06T08:23:50.619Z,20.50
2022-11-06T08:26:17.291Z,20.50
2022-11-06T08:28:43.992Z,20.60
2022-11-06T08:31:10.848Z,20.60
2022-11-06T08:33:38.967Z,20.60
2022-11-06T08:36:07.594Z,20.60
2022-11-06T08:38:34.446Z,20.60
2022-11-06T08:41:06.352Z,20.70
2022-11-06T08:43:33.305Z,20.70
2022-11-06T08:46:00.476Z,20.70
2022-11-06T08:48:27.640Z,20.80
2022-11-06T08:50:54.190Z,20.90
2022-11-06T08:53:20.799Z,20.90
2022-11-06T08:55:47.459Z,20.90
2022-11-06T08:58:14.078Z,20.80
2022-11-06T09:00:40.975Z,20.90
2022-11-06T09:03:11.266Z,20.90
2022-11-06T09:05:42.848Z,20.80
2022-11-06T09:08:10.814Z,20.70
2022-11-06T09:10:39.053Z,20.70
2022-11-06T09:13:06.173Z,20.70
2022-11-06T09:15:33.122Z,20.70
2022-11-06T09:17:59.714Z,20.70
2022-11-06T09:20:26.871Z,20.70
2022-11-06T09:22:54.044Z,20.70
2022-11-06T09:25:21.719Z,20.70
2022-11-06T09:27:55.682Z,20.70
2022-11-06T09:30:26.474Z,20.70
2022-11-06T09:32:55.590Z,20.70
2022-11-06T09:35:24.451Z,20.70
2022-11-06T09:37:51.240Z,20.70
2022-11-06T09:40:20.005Z,20.70
2022-11-06T09:43:43.244Z,20.70
2022-11-06T09:46:27.717Z,20.70
2022-11-06T09:49:16.578Z,20.70
2022-11-06T09:51:54.930Z,20.70
2022-11-06T09:54:39.290Z,20.60
2022-11-06T09:57:18.113Z,20.70
2022-11-06T09:59:45.921Z,20.70
2022-11-06T10:02:20.758Z,20.70
2022-11-06T10:04:56.226Z,20.70
2022-11-06T10:07:30.155Z,20.70
2022-11-06T10:09:57.353Z,20.70
2022-11-06T10:12:51.630Z,20.70
2022-11-06T10:15:24.726Z,20.70
2022-11-06T10:18:09.287Z,20.70
2022-11-06T10:21:14.334Z,20.70
2022-11-06T10:23:50.034Z,20.70
2022-11-06T10:26:23.655Z,20.70
2022-11-06T10:29:28.003Z,20.80
2022-11-06T10:32:14.867Z,20.70
2022-11-06T10:34:49.730Z,20.80
2022-11-06T10:37:28.054Z,20.70
2022-11-06T10:39:57.580Z,20.80
2022-11-06T10:42:35.301Z,20.80
2022-11-06T10:45:11.222Z,20.80
2022-11-06T10:47:55.309Z,20.80
2022-11-06T10:50:30.881Z,20.80
2022-11-06T10:53:49.298Z,20.80
2022-11-06T10:56:24.979Z,20.80
2022-11-06T10:58:52.921Z,20.70
2022-11-06T11:01:20.060Z,20.50
2022-11-06T11:03:47.644Z,20.50
2022-11-06T11:06:14.280Z,20.50
2022-11-06T11:08:49.281Z,20.60
2022-11-06T11:11:15.841Z,20.60
2022-11-06T11:13:48.231Z,19.70
2022-11-06T11:16:29.777Z,18.80
2022-11-06T11:19:14.746Z,18.40
2022-11-06T11:21:59.343Z,19.10
2022-11-06T11:24:27.135Z,19.70
2022-11-06T11:27:05.591Z,20.10
2022-11-06T11:29:45.173Z,20.20
2022-11-06T11:32:15.886Z,20.40
2022-11-06T11:35:08.937Z,20.50
2022-11-06T11:37:36.080Z,20.50
2022-11-06T11:40:22.551Z,20.50
2022-11-06T11:42:49.685Z,20.60
2022-11-06T11:45:19.367Z,20.60
2022-11-06T11:47:49.027Z,20.60
2022-11-06T11:50:30.519Z,20.70
2022-11-06T11:53:19.719Z,20.70
2022-11-06T11:55:49.134Z,20.70
2022-11-06T11:58:25.922Z,20.70
2022-11-06T12:00:58.711Z,20.80
2022-11-06T12:03:29.016Z,20.80
2022-11-06T12:06:09.144Z,20.80
2022-11-06T12:08:38.144Z,20.80
2022-11-06T12:11:06.827Z,20.90
2022-11-06T12:13:33.904Z,20.80
2022-11-06T12:16:26.925Z,20.80
2022-11-06T12:18:58.925Z,20.80
2022-11-06T12:21:39.236Z,20.80
2022-11-06T12:24:30.411Z,20.90
2022-11-06T12:27:17.430Z,20.90
2022-11-06T12:29:56.042Z,20.90
2022-11-06T12:32:28.838Z,20.90
2022-11-06T12:35:07.293Z,20.90
2022-11-06T12:37:47.231Z,20.90
2022-11-06T12:40:25.494Z,21.00
2022-11-06T12:43:11.078Z,21.00
2022-11-06T12:45:52.726Z,21.00
2022-11-06T12:48:55.961Z,21.10
2022-11-06T12:51:33.967Z,21.10
2022-11-06T12:54:50.427Z,21.00
2022-11-06T12:57:42.588Z,21.00
2022-11-06T13:00:24.983Z,21.00
2022-11-06T13:03:42.799Z,21.00
2022-11-06T13:06:56.552Z,21.00
2022-11-06T13:09:46.319Z,21.10
2022-11-06T13:12:44.293Z,21.10
2022-11-06T13:15:31.506Z,21.10
2022-11-06T13:18:09.643Z,21.10
2022-11-06T13:20:52.222Z,21.20
2022-11-06T13:23:29.202Z,21.20
2022-11-06T13:26:09.139Z,21.20
2022-11-06T13:28:46.819Z,21.20
2022-11-06T13:31:18.587Z,21.20
2022-11-06T13:33:58.967Z,21.20
2022-11-06T13:36:28.086Z,21.20
2022-11-06T13:39:02.839Z,21.20
2022-11-06T13:41:31.585Z,21.30
2022-11-06T13:44:03.560Z,21.30
2022-11-06T13:46:33.235Z,21.30
2022-11-06T13:49:08.161Z,21.30
2022-11-06T13:51:50.432Z,21.30
2022-11-06T13:54:48.501Z,21.40
2022-11-06T13:57:33.937Z,21.40
2022-11-06T14:00:20.582Z,21.40
2022-11-06T14:03:25.293Z,21.40
2022-11-06T14:05:53.842Z,20.50
2022-11-06T14:08:29.344Z,19.30
2022-11-06T14:11:15.337Z,18.60
2022-11-06T14:13:55.411Z,18.20
2022-11-06T14:16:22.023Z,18.00
2022-11-06T14:19:03.743Z,17.90
2022-11-06T14:21:36.635Z,17.70
2022-11-06T14:24:32.316Z,17.60
2022-11-06T14:27:01.465Z,17.50
2022-11-06T14:29:28.173Z,17.40
2022-11-06T14:32:02.902Z,17.30
2022-11-06T14:34:32.348Z,17.20
2022-11-06T14:36:59.537Z,17.10
2022-11-06T14:39:58.281Z,17.10
2022-11-06T14:42:27.876Z,17.10
2022-11-06T14:45:05.862Z,17.80
2022-11-06T14:47:37.491Z,18.50
2022-11-06T14:50:19.445Z,19.00
2022-11-06T14:52:46.042Z,19.30
2022-11-06T14:55:30.631Z,19.50
2022-11-06T14:58:13.546Z,19.70
2022-11-06T15:00:49.316Z,19.80
2022-11-06T15:03:38.366Z,19.90
2022-11-06T15:06:07.327Z,19.90
2022-11-06T15:08:48.795Z,20.00
2022-11-06T15:11:30.600Z,20.10
2022-11-06T15:14:17.128Z,20.20
2022-11-06T15:16:44.910Z,20.20
2022-11-06T15:19:21.505Z,20.30
2022-11-06T15:22:07.311Z,20.30
2022-11-06T15:24:55.486Z,20.40
2022-11-06T15:27:28.162Z,20.40
2022-11-06T15:29:58.367Z,20.50
2022-11-06T15:32:29.520Z,20.50
2022-11-06T15:35:11.195Z,20.50
2022-11-06T15:37:52.320Z,20.50
2022-11-06T15:40:35.358Z,20.50
2022-11-06T15:43:26.649Z,20.60
2022-11-06T15:46:07.106Z,20.60
2022-11-06T15:48:34.758Z,20.60
2022-11-06T15:51:01.872Z,20.70
2022-11-06T15:53:30.081Z,20.70
2022-11-06T15:56:03.553Z,20.70
2022-11-06T15:58:37.058Z,20.70
2022-11-06T16:01:06.393Z,20.70
2022-11-06T16:03:50.479Z,20.70
2022-11-06T16:06:17.426Z,19.40
2022-11-06T16:08:44.774Z,18.20
2022-11-06T16:11:17.733Z,17.70
2022-11-06T16:13:46.504Z,17.50
2022-11-06T16:16:36.940Z,18.40
2022-11-06T16:19:07.189Z,19.00
2022-11-06T16:21:36.355Z,19.30
2022-11-06T16:24:15.476Z,19.50
2022-11-06T16:26:48.337Z,19.60
2022-11-06T16:29:25.771Z,19.70
2022-11-06T16:32:06.327Z,19.80
2022-11-06T16:34:39.737Z,19.80
2022-11-06T16:37:18.741Z,19.90
2022-11-06T16:39:53.684Z,19.90
2022-11-06T16:42:26.899Z,19.90
2022-11-06T16:45:08.846Z,20.00
2022-11-06T16:47:35.862Z,20.00
2022-11-06T16:50:05.811Z,20.00
2022-11-06T16:52:38.853Z,20.00
2022-11-06T16:55:17.306Z,20.00
2022-11-06T16:57:50.273Z,20.00
2022-11-06T17:00:19.795Z,20.10
2022-11-06T17:02:50.837Z,20.10
2022-11-06T17:05:23.681Z,20.20
2022-11-06T17:08:23.705Z,20.20
2022-11-06T17:10:57.044Z,20.20
2022-11-06T17:13:33.597Z,20.20
2022-11-06T17:16:02.707Z,20.20
2022-11-06T17:18:34.759Z,20.20
2022-11-06T17:21:05.506Z,20.20
2022-11-06T17:23:33.361Z,20.30
2022-11-06T17:26:04.662Z,20.30
2022-11-06T17:28:31.690Z,20.40
2022-11-06T17:30:58.370Z,20.30
2022-11-06T17:33:25.003Z,20.30
2022-11-06T17:35:51.724Z,20.30
2022-11-06T17:38:18.561Z,20.40
2022-11-06T17:40:45.759Z,20.40
2022-11-06T17:43:12.722Z,20.40
2022-11-06T17:45:42.100Z,20.40
2022-11-06T17:48:08.763Z,20.40
2022-11-06T17:50:55.377Z,20.50
2022-11-06T17:53:22.311Z,20.50
2022-11-06T17:55:48.890Z,20.50
2022-11-06T17:58:15.907Z,20.50
2022-11-06T18:00:42.943Z,20.50
2022-11-06T18:03:17.867Z,20.50
2022-11-06T18:05:44.822Z,20.50
2022-11-06T18:08:13.093Z,20.50
2022-11-06T18:10:40.292Z,20.40
2022-11-06T18:13:07.046Z,20.40
2022-11-06T18:15:35.364Z,20.40
2022-11-06T18:18:02.776Z,20.40
2022-11-06T18:20:29.389Z,20.40
2022-11-06T18:22:55.960Z,20.50
2022-11-06T18:25:22.541Z,20.60
2022-11-06T18:27:49.130Z,20.60
2022-11-06T18:30:15.777Z,20.50
2022-11-06T18:32:42.328Z,20.50
2022-11-06T18:35:09.336Z,20.50
2022-11-06T18:37:35.931Z,20.50
2022-11-06T18:40:03.247Z,20.50
2022-11-06T18:42:29.870Z,20.50
2022-11-06T18:44:56.482Z,20.50
2022-11-06T18:47:23.061Z,20.50
2022-11-06T18:49:49.661Z,20.50
2022-11-06T18:52:32.497Z,20.50
2022-11-06T18:55:03.215Z,20.50
2022-11-06T18:57:30.062Z,20.50
2022-11-06T18:59:56.635Z,20.50
2022-11-06T19:02:23.470Z,20.50
2022-11-06T19:04:50.273Z,20.50
2022-11-06T19:07:16.929Z,20.50
2022-11-06T19:09:43.502Z,20.50
2022-11-06T19:12:10.074Z,20.50
2022-11-06T19:14:36.626Z,20.50
2022-11-06T19:17:03.286Z,20.50
2022-11-06T19:19:29.851Z,20.50
2022-11-06T19:21:56.437Z,20.50
2022-11-06T19:24:23.025Z,20.50
2022-11-06T19:26:50.274Z,20.60
2022-11-06T19:29:17.003Z,20.60
2022-11-06T19:31:43.721Z,20.60
2022-11-06T19:34:12.961Z,20.60
2022-11-06T19:36:39.561Z,20.50
2022-11-06T19:39:07.191Z,20.60
2022-11-06T19:41:34.364Z,20.60
2022-11-06T19:44:00.976Z,20.50
2022-11-06T19:46:33.870Z,20.60
2022-11-06T19:49:05.657Z,20.50
2022-11-06T19:51:33.319Z,20.60
2022-11-06T19:54:01.404Z,20.60
2022-11-06T19:56:28.010Z,20.60
2022-11-06T19:58:54.658Z,20.60
2022-11-06T20:01:21.565Z,20.60
2022-11-06T20:03:48.384Z,20.60
2022-11-06T20:06:15.458Z,20.60
2022-11-06T20:08:42.183Z,20.60
2022-11-06T20:11:12.282Z,20.60
2022-11-06T20:13:42.548Z,20.60
2022-11-06T20:16:15.198Z,20.50
2022-11-06T20:18:41.883Z,20.50
2022-11-06T20:21:11.154Z,20.50
2022-11-06T20:23:38.778Z,20.50
2022-11-06T20:26:06.951Z,20.50
2022-11-06T20:28:34.027Z,20.50
2022-11-06T20:31:08.227Z,20.50
2022-11-06T20:33:35.530Z,20.50
2022-11-06T20:36:13.355Z,20.50
2022-11-06T20:38:40.760Z,20.40
2022-11-06T20:41:07.661Z,20.50
2022-11-06T20:43:34.276Z,20.50
2022-11-06T20:46:02.410Z,20.50
2022-11-06T20:48:30.080Z,20.50
2022-11-06T20:51:08.649Z,20.50
2022-11-06T20:53:35.551Z,20.50
2022-11-06T20:56:04.990Z,20.50
2022-11-06T20:58:32.431Z,20.50
2022-11-06T21:01:07.738Z,20.50
2022-11-06T21:03:34.975Z,20.50
2022-11-06T21:06:01.749Z,20.60
2022-11-06T21:08:29.118Z,20.50
2022-11-06T21:10:58.906Z,20.60
2022-11-06T21:13:29.501Z,20.60
2022-11-06T21:16:01.141Z,20.50
2022-11-06T21:18:27.970Z,20.60
2022-11-06T21:20:54.866Z,20.50
2022-11-06T21:23:22.066Z,20.60
2022-11-06T21:25:48.786Z,20.60
2022-11-06T21:28:15.563Z,20.60
2022-11-06T21:30:43.466Z,20.60
2022-11-06T21:33:10.200Z,20.50
2022-11-06T21:35:37.269Z,20.60
2022-11-06T21:38:05.161Z,20.60
2022-11-06T21:40:33.003Z,20.60
2022-11-06T21:42:59.938Z,20.60
2022-11-06T21:45:26.915Z,20.60
2022-11-06T21:47:53.657Z,20.60
2022-11-06T21:50:28.216Z,20.60
2022-11-06T21:53:14.733Z,20.50
2022-11-06T21:55:59.716Z,20.50
2022-11-06T21:58:26.998Z,20.50
2022-11-06T22:00:53.848Z,20.50
2022-11-06T22:03:20.475Z,20.50
2022-11-06T22:05:47.126Z,20.50
2022-11-06T22:08:14.051Z,20.60
2022-11-06T22:10:40.901Z,20.50
2022-11-06T22:13:07.464Z,20.60
2022-11-06T22:15:34.056Z,20.60
2022-11-06T22:18:00.667Z,20.60
2022-11-06T22:20:27.293Z,20.60
2022-11-06T22:22:53.863Z,20.50
2022-11-06T22:25:20.431Z,20.50
2022-11-06T22:27:47.078Z,20.50
2022-11-06T22:30:13.835Z,20.50
2022-11-06T22:32:40.471Z,20.50
2022-11-06T22:35:07.293Z,20.50
2022-11-06T22:37:33.862Z,20.50
2022-11-06T22:40:00.507Z,20.50
2022-11-06T22:42:27.062Z,20.50
2022-11-06T22:44:53.647Z,20.50
2022-11-06T22:47:20.265Z,20.50
2022-11-06T22:49:46.846Z,20.50
2022-11-06T22:52:13.401Z,20.50
2022-11-06T22:54:39.998Z,20.50
2022-11-06T22:57:06.552Z,20.50
2022-11-06T22:59:33.307Z,20.50
2022-11-06T23:01:59.911Z,20.50
2022-11-06T23:04:26.527Z,20.50
2022-11-06T23:06:53.082Z,20.50
2022-11-06T23:09:19.648Z,20.50
2022-11-06T23:11:47.017Z,20.50
2022-11-06T23:14:13.674Z,20.50
2022-11-06T23:16:58.867Z,20.50
2022-11-06T23:19:26.053Z,20.50
2022-11-06T23:22:12.682Z,20.50
2022-11-06T23:24:39.668Z,20.50
2022-11-06T23:27:06.248Z,20.50
2022-11-06T23:29:32.838Z,20.50
2022-11-06T23:31:59.433Z,20.50
2022-11-06T23:34:26.097Z,20.50
2022-11-06T23:36:52.725Z,20.50
2022-11-06T23:39:19.351Z,20.50
2022-11-06T23:41:46.452Z,20.50
2022-11-06T23:44:33.092Z,20.50
2022-11-06T23:47:00.242Z,20.50
2022-11-06T23:49:26.935Z,20.50
2022-11-06T23:51:53.735Z,20.50
2022-11-06T23:54:20.390Z,20.50
2022-11-06T23:56:46.971Z,20.50
2022-11-06T23:59:13.609Z,20.50
